Latest Weather Observations for Truscott

IDW60801

Issued at 8:43 am WST Monday 18 February 2019 (issued every 10 minutes, with the page automatically refreshed every 10 minutes)

About weather observations | Map of weather stations | Latest weather observations for WA | Other Formats
Station Details ID: 001020 Name: TRUSCOTT Lat: -14.09 Lon: 126.39 Height: 51.0 m
Data from the previous 72 hours. | See also: Recent months at Truscott
Date/Time
WST
Temp
°C
App
Temp
°C
Dew
Point
°C
Rel
Hum
%
Delta-T
°C
Wind Press
QNH
hPa
Press
MSL
hPa
Rain since
9am
mm
Dir  Spd
km/h
Gust
km/h
Spd
kts
Gust
kts
18/08:30am 30.3 33.9 24.4 70 4.1 WNW 13 20 7 11 1010.6 1010.2 0.0
18/08:00am 29.9 33.2 24.5 73 3.8 WNW 15 20 8 11 1010.3 1009.9 0.0
18/07:30am 29.7 32.8 23.6 69 4.2 WNW 13 19 7 10 1010.2 1009.8 0.0
18/07:00am 29.2 33.4 24.1 74 3.5 WNW 9 13 5 7 1009.9 1009.5 0.0
18/06:30am 27.6 33.4 24.0 81 2.5 CALM 0 0 0 0 1009.7 1009.3 0.0
18/06:00am 25.8 31.4 23.5 87 1.6 CALM 0 0 0 0 1009.4 1008.8 0.0
18/05:30am 25.5 30.8 23.0 86 1.7 CALM 0 0 0 0 1009.4 1009.0 0.0
18/05:00am 26.5 30.9 22.8 80 2.5 SW 4 7 2 4 1009.2 1008.8 0.0
18/04:30am 27.6 31.4 22.8 75 3.3 SW 7 9 4 5 1009.0 1008.6 0.0
18/04:00am 27.9 31.2 22.6 73 3.6 WSW 9 13 5 7 1008.8 1008.4 0.0
18/03:30am 28.1 31.4 22.6 72 3.7 WSW 9 13 5 7 1009.0 1008.6 0.0
18/03:00am 28.3 31.9 23.7 76 3.2 SW 11 15 6 8 1009.4 1008.8 0.0
18/02:30am 28.6 32.6 23.7 75 3.4 SSW 9 13 5 7 1009.8 1009.4 0.0
18/02:00am 28.7 32.0 23.8 75 3.4 SW 13 20 7 11 1009.9 1009.5 0.0
18/01:30am 28.6 32.1 24.2 77 3.1 WSW 13 20 7 11 1009.9 1009.5 0.0
18/01:00am 28.8 32.1 23.9 75 3.4 WSW 13 19 7 10 1010.4 1010.0 0.0
18/12:30am 28.9 32.2 23.8 74 3.5 WSW 13 19 7 10 1010.7 1010.3 0.0
18/12:00am 28.8 31.7 23.9 75 3.4 W 15 22 8 12 1010.7 1010.1 0.0
 
Date/Time
WST
Temp
°C
App
Temp
°C
Dew
Point
°C
Rel
Hum
%
Delta-T
°C
Wind Press
QNH
hPa
Press
MSL
hPa
Rain since
9am
mm
Dir  Spd
km/h
Gust
km/h
Spd
kts
Gust
kts
17/11:30pm 28.7 32.3 24.3 77 3.1 WSW 13 19 7 10 1010.9 1010.5 0.0
17/11:00pm 29.0 31.6 23.9 74 3.5 W 17 24 9 13 1010.5 1010.1 0.0
17/10:30pm 29.0 31.4 23.7 73 3.7 W 17 22 9 12 1010.9 1010.5 0.0
17/10:00pm 29.0 31.3 24.1 75 3.4 WNW 19 26 10 14 1010.9 1010.5 0.0
17/09:30pm 29.1 31.6 24.4 76 3.3 W 19 26 10 14 1011.3 1010.9 0.0
17/09:00pm 29.2 32.3 24.1 74 3.5 WNW 15 20 8 11 1011.4 1010.8 0.0
17/08:30pm 29.1 33.3 24.7 77 3.1 W 11 17 6 9 1011.8 1011.4 0.0
17/08:00pm 29.2 32.9 24.5 76 3.3 W 13 19 7 10 1010.8 1010.4 0.0
17/07:30pm 29.4 32.6 24.3 74 3.6 W 15 20 8 11 1010.6 1010.2 0.0
17/07:00pm 29.4 33.1 24.5 75 3.4 WNW 13 20 7 11 1010.0 1009.6 0.0
17/06:30pm 29.4 33.1 24.5 75 3.4 NW 13 22 7 12 1008.8 1008.4 0.0
17/06:00pm 30.0 33.5 24.9 74 3.6 WNW 15 24 8 13 1008.8 1008.2 0.0
17/05:30pm 30.6 33.6 24.7 71 4.1 W 17 26 9 14 1008.3 1007.9 0.0
17/05:00pm 31.0 34.0 24.6 68 4.5 W 17 26 9 14 1007.9 1007.5 0.0
17/04:30pm 31.8 34.7 23.9 63 5.5 WNW 15 24 8 13 1007.8 1007.4 0.0
17/04:00pm 31.9 33.7 23.2 60 6.0 WNW 19 26 10 14 1007.9 1007.5 0.0
17/03:30pm 32.4 34.8 23.6 59 6.1 WNW 17 26 9 14 1008.0 1007.6 0.0
17/03:00pm 31.7 34.4 23.5 62 5.7 NW 15 24 8 13 1008.2 1007.6 0.0
17/02:30pm 32.7 36.2 24.2 61 6.0 WNW 13 24 7 13 1008.3 1007.9 0.0
17/02:00pm 32.2 34.8 24.0 62 5.7 WNW 17 24 9 13 1008.7 1008.3 0.0
17/01:30pm 32.9 36.8 24.9 63 5.7 W 13 20 7 11 1009.0 1008.6 0.0
17/01:00pm 32.3 35.5 24.3 62 5.6 NW 15 20 8 11 1009.4 1009.0 0.0
17/12:30pm 32.5 35.7 24.3 62 5.8 WNW 15 26 8 14 1009.6 1009.2 0.0
17/12:00pm 32.2 35.8 24.3 63 5.5 NW 13 24 7 13 1010.0 1009.4 0.0
17/11:30am 32.0 34.9 23.8 62 5.7 NW 15 20 8 11 1010.5 1010.1 0.0
17/11:00am 32.0 34.9 23.8 62 5.7 WNW 15 24 8 13 1010.9 1010.5 0.0
17/10:30am 31.4 34.7 24.5 67 4.8 WNW 15 22 8 12 1011.4 1011.0 0.0
17/10:00am 31.9 35.3 24.7 65 5.1 WNW 15 22 8 12 1011.5 1011.1 0.0
17/09:30am 31.2 34.4 24.3 66 4.8 WNW 15 24 8 13 1011.6 1011.2 0.0
17/09:00am 30.5 34.0 24.2 69 4.4 WNW 13 22 7 12 1011.6 1011.0 0.0
17/08:30am 30.5 33.9 24.6 70 4.1 WNW 15 20 8 11 1011.7 1011.3 0.0
17/08:00am 30.0 34.0 25.1 75 3.5 W 13 20 7 11 1011.5 1011.1 0.0
17/07:30am 29.4 33.4 25.6 80 2.7 W 15 22 8 12 1011.3 1010.9 0.0
17/07:00am 28.9 33.0 25.7 83 2.3 WNW 15 20 8 11 1011.1 1010.7 0.0
17/06:30am 28.8 33.8 26.0 85 2.0 WNW 11 19 6 10 1010.9 1010.5 0.0
17/06:00am 28.1 34.2 26.5 91 1.1 WNW 7 11 4 6 1010.6 1010.0 0.0
17/05:30am 27.6 33.5 26.2 92 1.0 NW 7 13 4 7 1010.3 1009.9 0.0
17/05:00am 27.6 33.5 26.2 92 1.0 W 7 9 4 5 1010.2 1009.8 0.0
17/04:30am 27.6 33.6 26.0 91 1.1 WSW 6 9 3 5 1010.3 1009.9 0.0
17/04:00am 27.1 33.0 25.9 93 0.8 WNW 6 7 3 4 1010.2 1009.8 0.0
17/03:30am 26.7 33.6 25.7 94 0.7 CALM 0 0 0 0 1010.1 1009.7 0.0
17/03:00am 27.0 33.6 25.2 90 1.3 CALM 0 0 0 0 1010.0 1009.4 0.0
17/02:30am 27.5 33.0 25.3 88 1.5 NW 6 7 3 4 1009.7 1009.3 0.0
17/02:00am 27.5 33.4 25.9 91 1.1 NNW 6 7 3 4 1009.5 1009.1 0.0
17/01:30am 27.8 33.6 25.8 89 1.4 NW 6 9 3 5 1009.9 1009.5 0.0
17/01:00am 28.2 34.0 26.0 88 1.6 WNW 7 13 4 7 1010.1 1009.7 0.0
17/12:30am 28.0 33.6 25.8 88 1.6 WNW 7 11 4 6 1010.2 1009.8 0.0
17/12:00am 28.5 34.1 25.7 85 2.0 WSW 7 9 4 5 1010.6 1010.0 0.0
 
Date/Time
WST
Temp
°C
App
Temp
°C
Dew
Point
°C
Rel
Hum
%
Delta-T
°C
Wind Press
QNH
hPa
Press
MSL
hPa
Rain since
9am
mm
Dir  Spd
km/h
Gust
km/h
Spd
kts
Gust
kts
16/11:30pm 28.5 33.6 25.5 84 2.1 WNW 9 13 5 7 1010.7 1010.3 0.0
16/11:00pm 28.8 33.2 25.6 83 2.3 WNW 13 20 7 11 1011.4 1011.0 0.0
16/10:30pm 28.9 33.2 25.5 82 2.4 W 13 20 7 11 1012.0 1011.6 0.0
16/10:00pm 28.8 33.5 25.6 83 2.3 W 11 17 6 9 1012.4 1012.0 0.0
16/09:30pm 29.0 33.6 25.4 81 2.5 W 11 17 6 9 1012.5 1012.1 0.0
16/09:00pm 29.0 33.2 25.4 81 2.5 W 13 17 7 9 1012.2 1011.6 0.0
16/08:30pm 29.1 33.8 25.5 81 2.5 WNW 11 17 6 9 1012.0 1011.6 0.0
16/08:00pm 29.1 33.4 25.5 81 2.5 W 13 19 7 10 1011.5 1011.1 0.0
16/07:30pm 29.1 33.9 25.7 82 2.4 WNW 11 17 6 9 1010.8 1010.4 0.0
16/07:00pm 29.3 33.5 25.3 79 2.8 WNW 13 20 7 11 1010.2 1009.8 0.0
16/06:30pm 29.3 34.2 25.3 79 2.8 NW 9 15 5 8 1009.6 1009.2 0.0
16/06:00pm 29.8 33.6 24.7 74 3.6 NW 13 22 7 12 1009.0 1008.4 0.0
16/05:30pm 30.6 34.0 24.0 68 4.6 NW 13 20 7 11 1008.9 1008.5 0.0
16/05:00pm 31.5 34.4 23.1 61 5.8 NW 13 20 7 11 1008.7 1008.3 0.0
16/04:30pm 31.8 35.3 24.9 67 4.9 NW 15 26 8 14 1008.3 1007.9 0.0
16/04:00pm 32.2 35.4 24.3 63 5.5 NW 15 22 8 12 1008.1 1007.7 0.0
16/03:30pm 32.3 35.0 23.5 59 6.1 NW 15 24 8 13 1008.0 1007.6 0.0
16/03:00pm 32.7 35.1 23.6 58 6.3 W 17 26 9 14 1008.3 1007.7 0.0
16/02:30pm 32.7 35.7 24.7 62 5.6 WNW 17 24 9 13 1008.8 1008.4 0.0
16/02:00pm 32.4 35.6 24.4 62 5.6 WNW 15 28 8 15 1009.2 1008.8 0.0
16/01:30pm 32.5 35.3 24.3 62 5.8 WNW 17 24 9 13 1009.7 1009.3 0.0
16/01:00pm 32.9 36.5 24.4 61 6.0 W 13 22 7 12 1010.1 1009.7 0.0
16/12:30pm 32.8 36.5 25.1 64 5.5 WNW 15 20 8 11 1010.5 1010.1 0.0
16/12:00pm 32.2 35.4 23.7 61 5.9 W 13 20 7 11 1010.8 1010.2 0.0
16/11:30am 32.2 35.2 24.0 62 5.7 WNW 15 24 8 13 1011.1 1010.7 0.0
16/11:00am 31.9 34.7 23.7 62 5.7 WNW 15 20 8 11 1011.3 1010.9 0.0
16/10:30am 32.1 35.0 23.9 62 5.7 W 15 22 8 12 1011.8 1011.4 0.0
16/10:00am 32.1 36.1 24.4 63 5.4 W 11 17 6 9 1012.1 1011.7 0.0
16/09:30am 31.5 35.6 24.6 67 4.8 W 11 19 6 10 1012.1 1011.7 0.0
16/09:00am 30.9 35.3 25.0 71 4.2 WSW 11 17 6 9 1012.3 1011.7 0.0
16/08:30am 30.2 33.9 24.6 72 3.9 W 13 19 7 10 1012.0 1011.6 -
16/08:00am 29.8 34.4 24.7 74 3.6 WNW 9 15 5 8 1012.1 1011.7 -
16/07:30am 29.2 33.9 24.3 75 3.4 WSW 7 9 4 5 1012.2 1011.8 -
16/07:00am 28.8 34.6 23.9 75 3.4 CALM 0 0 0 0 1011.9 1011.5 -
16/06:30am 27.6 32.3 24.0 81 2.5 S 6 7 3 4 1011.8 1011.4 -
16/06:00am 25.8 30.1 23.7 88 1.4 S 7 9 4 5 1011.4 1010.8 -
16/05:30am 25.9 30.5 24.1 90 1.2 S 7 9 4 5 1011.2 1010.8 -
16/05:00am 25.5 29.7 23.2 87 1.6 SSW 6 7 3 4 1011.0 1010.6 -
16/04:30am 25.6 29.7 22.9 85 1.8 SSE 6 7 3 4 1011.0 1010.6 -
16/04:00am 25.4 29.5 22.9 86 1.7 SE 6 7 3 4 1010.9 1010.5 -
16/03:30am 25.1 30.4 23.0 88 1.4 CALM 0 0 0 0 1010.8 1010.4 -
16/03:00am 24.7 29.9 22.8 89 1.3 CALM 0 0 0 0 1010.5 1009.9 0.0
16/02:30am 25.1 30.2 22.6 86 1.7 CALM 0 6 0 3 1010.3 1009.9 -
16/02:00am 25.8 29.9 22.9 84 2.0 S 6 7 3 4 1010.6 1010.2 -
16/01:30am 26.4 30.4 23.1 82 2.2 S 7 11 4 6 1010.8 1010.4 -
16/01:00am 26.9 31.3 23.8 83 2.1 WSW 7 11 4 6 1010.9 1010.5 -
16/12:30am 26.1 31.5 23.8 87 1.6 SSW 2 7 1 4 1011.0 1010.6 -
16/12:00am 26.1 31.6 23.4 85 1.8 CALM 0 0 0 0 1011.1 1010.5 -
 
Date/Time
WST
Temp
°C
App
Temp
°C
Dew
Point
°C
Rel
Hum
%
Delta-T
°C
Wind Press
QNH
hPa
Press
MSL
hPa
Rain since
9am
mm
Dir  Spd
km/h
Gust
km/h
Spd
kts
Gust
kts
15/11:30pm 26.7 30.9 23.2 81 2.4 SW 6 9 3 5 1011.7 1011.3 -
15/11:00pm 25.8 31.4 23.5 87 1.6 CALM 0 0 0 0 1011.9 1011.5 -
15/10:30pm 25.6 30.5 22.3 82 2.2 CALM 0 0 0 0 1012.0 1011.6 -
15/10:00pm 26.1 31.0 22.4 80 2.5 CALM 0 4 0 2 1012.3 1011.9 -
15/09:30pm 27.1 30.5 21.6 72 3.7 SSW 6 9 3 5 1012.3 1011.9 -
15/09:00pm 27.5 30.8 21.5 70 4.0 SW 6 9 3 5 1012.2 1011.6 0.0
15/08:30pm 27.5 31.5 22.0 72 3.7 WNW 4 7 2 4 1011.7 1011.3 -
15/08:00pm 28.2 31.2 21.2 65 4.7 WSW 7 9 4 5 1011.5 1011.1 -
15/07:30pm 28.3 31.5 21.6 67 4.5 SW 7 11 4 6 1011.1 1010.7 -
15/07:00pm 28.4 31.7 21.9 68 4.4 WNW 7 11 4 6 1010.5 1010.1 -
15/06:30pm 28.1 31.3 21.6 68 4.4 WNW 7 9 4 5 1009.8 1009.4 -
15/06:00pm 28.3 31.1 21.6 67 4.5 WSW 9 15 5 8 1009.6 1009.0 -
15/05:30pm 30.0 32.7 24.2 71 4.0 WSW 17 24 9 13 1009.9 1009.5 -
15/05:00pm 31.0 34.7 25.8 74 3.7 SW 17 26 9 14 1009.3 1008.9 -
15/04:30pm 32.6 36.3 25.7 67 4.9 W 17 22 9 12 1008.8 1008.4 -
15/04:00pm 32.8 37.3 26.4 69 4.6 W 15 20 8 11 1008.1 1007.7 -
15/03:30pm 33.1 37.7 25.4 64 5.5 WNW 11 17 6 9 1007.8 1007.4 -
15/03:00pm 33.9 38.3 25.6 62 5.9 W 13 20 7 11 1008.3 1007.7 0.0
15/02:30pm 33.6 37.5 24.8 60 6.2 WNW 13 22 7 12 1008.7 1008.3 -
15/02:00pm 33.1 37.7 25.9 66 5.2 WNW 13 20 7 11 1009.0 1008.6 -
15/01:30pm 33.4 37.3 25.4 63 5.7 WNW 15 20 8 11 1009.4 1009.0 -
15/01:00pm 33.1 37.3 25.9 66 5.2 W 15 19 8 10 1009.8 1009.4 -
15/12:30pm 32.3 36.3 25.6 67 4.8 WNW 15 24 8 13 1010.2 1009.8 -
15/12:00pm 33.2 37.6 26.2 66 5.0 WNW 15 24 8 13 1010.5 1009.9 -
15/11:30am 33.0 36.9 26.0 66 5.0 W 17 26 9 14 1010.9 1010.5 -

Other Formats:

Comma delimited format used in spreadsheet applications
http://www.bom.gov.au/fwo/IDW60801/IDW60801.95101.axf

JavaScript Object Notation format (JSON) in row-major order
http://www.bom.gov.au/fwo/IDW60801/IDW60801.95101.json